sensor_id;sensor_type;location;lat;lon;timestamp;pressure;altitude;pressure_sealevel;temperature;humidity
9889;BME280;4983;42.112;24.738;2022-09-09T00:01:02;99877.84;;;19.69;100.00
9889;BME280;4983;42.112;24.738;2022-09-09T00:03:40;99884.56;;;19.67;100.00
9889;BME280;4983;42.112;24.738;2022-09-09T00:06:17;99882.78;;;19.03;100.00
9889;BME280;4983;42.112;24.738;2022-09-09T00:08:53;99885.47;;;19.32;100.00
9889;BME280;4983;42.112;24.738;2022-09-09T00:11:29;99879.97;;;19.32;100.00
9889;BME280;4983;42.112;24.738;2022-09-09T00:14:00;99881.03;;;19.16;100.00
9889;BME280;4983;42.112;24.738;2022-09-09T00:16:32;99877.28;;;19.03;100.00
9889;BME280;4983;42.112;24.738;2022-09-09T00:19:06;99885.28;;;19.33;100.00
9889;BME280;4983;42.112;24.738;2022-09-09T00:21:37;99878.22;;;19.24;100.00
9889;BME280;4983;42.112;24.738;2022-09-09T00:24:11;99874.25;;;19.12;100.00
9889;BME280;4983;42.112;24.738;2022-09-09T00:26:45;99878.09;;;19.32;100.00
9889;BME280;4983;42.112;24.738;2022-09-09T00:29:23;99884.69;;;19.38;100.00
9889;BME280;4983;42.112;24.738;2022-09-09T00:31:57;99887.56;;;19.30;100.00
9889;BME280;4983;42.112;24.738;2022-09-09T00:34:29;99890.72;;;19.12;100.00
9889;BME280;4983;42.112;24.738;2022-09-09T00:36:59;99894.09;;;19.29;100.00
9889;BME280;4983;42.112;24.738;2022-09-09T00:39:31;99901.31;;;19.15;100.00
9889;BME280;4983;42.112;24.738;2022-09-09T00:42:13;99897.31;;;19.32;100.00
9889;BME280;4983;42.112;24.738;2022-09-09T00:44:51;99899.13;;;19.25;100.00
9889;BME280;4983;42.112;24.738;2022-09-09T00:47:43;99896.63;;;19.45;100.00
9889;BME280;4983;42.112;24.738;2022-09-09T00:50:28;99896.28;;;19.54;100.00
9889;BME280;4983;42.112;24.738;2022-09-09T00:53:13;99892.38;;;19.42;100.00
9889;BME280;4983;42.112;24.738;2022-09-09T00:55:47;99889.53;;;19.36;100.00
9889;BME280;4983;42.112;24.738;2022-09-09T00:58:16;99894.56;;;19.32;100.00
9889;BME280;4983;42.112;24.738;2022-09-09T01:00:45;99909.22;;;19.39;100.00
9889;BME280;4983;42.112;24.738;2022-09-09T01:03:30;99904.03;;;19.15;100.00
9889;BME280;4983;42.112;24.738;2022-09-09T01:06:13;99906.69;;;19.09;100.00
9889;BME280;4983;42.112;24.738;2022-09-09T01:09:12;99910.06;;;19.40;100.00
9889;BME280;4983;42.112;24.738;2022-09-09T01:11:53;99910.16;;;19.32;100.00
9889;BME280;4983;42.112;24.738;2022-09-09T01:14:39;99898.16;;;18.68;100.00
9889;BME280;4983;42.112;24.738;2022-09-09T01:17:14;99903.16;;;18.79;100.00
9889;BME280;4983;42.112;24.738;2022-09-09T01:19:57;99891.72;;;18.76;100.00
9889;BME280;4983;42.112;24.738;2022-09-09T01:22:34;99900.53;;;18.42;100.00
9889;BME280;4983;42.112;24.738;2022-09-09T01:25:16;99887.06;;;18.91;100.00
9889;BME280;4983;42.112;24.738;2022-09-09T01:27:48;99894.94;;;18.65;100.00
9889;BME280;4983;42.112;24.738;2022-09-09T01:30:18;99895.13;;;18.63;100.00
9889;BME280;4983;42.112;24.738;2022-09-09T01:32:47;99890.13;;;18.52;100.00
9889;BME280;4983;42.112;24.738;2022-09-09T01:35:29;99890.97;;;18.53;100.00
9889;BME280;4983;42.112;24.738;2022-09-09T01:37:58;99891.63;;;18.55;100.00
9889;BME280;4983;42.112;24.738;2022-09-09T01:40:26;99894.00;;;18.58;100.00
9889;BME280;4983;42.112;24.738;2022-09-09T01:42:55;99893.13;;;18.72;100.00
9889;BME280;4983;42.112;24.738;2022-09-09T01:45:23;99889.28;;;18.66;100.00
9889;BME280;4983;42.112;24.738;2022-09-09T01:47:52;99917.91;;;18.49;100.00
9889;BME280;4983;42.112;24.738;2022-09-09T01:50:20;99888.50;;;18.72;100.00
9889;BME280;4983;42.112;24.738;2022-09-09T01:52:50;99878.06;;;18.82;100.00
9889;BME280;4983;42.112;24.738;2022-09-09T01:55:25;99886.44;;;18.45;100.00
9889;BME280;4983;42.112;24.738;2022-09-09T01:58:06;99892.81;;;18.23;100.00
9889;BME280;4983;42.112;24.738;2022-09-09T02:00:45;99890.53;;;17.98;100.00
9889;BME280;4983;42.112;24.738;2022-09-09T02:03:20;99894.59;;;18.16;100.00
9889;BME280;4983;42.112;24.738;2022-09-09T02:05:58;99892.44;;;18.26;100.00
9889;BME280;4983;42.112;24.738;2022-09-09T02:08:34;99892.25;;;18.28;100.00
9889;BME280;4983;42.112;24.738;2022-09-09T02:11:07;99892.59;;;18.10;100.00
9889;BME280;4983;42.112;24.738;2022-09-09T02:13:38;99895.53;;;18.23;100.00
9889;BME280;4983;42.112;24.738;2022-09-09T02:16:08;99893.09;;;18.28;100.00
9889;BME280;4983;42.112;24.738;2022-09-09T02:18:40;99879.53;;;18.35;100.00
9889;BME280;4983;42.112;24.738;2022-09-09T02:21:11;99895.28;;;18.18;100.00
9889;BME280;4983;42.112;24.738;2022-09-09T02:23:41;99876.28;;;18.17;100.00
9889;BME280;4983;42.112;24.738;2022-09-09T02:26:10;99871.94;;;18.22;100.00
9889;BME280;4983;42.112;24.738;2022-09-09T02:28:40;99869.69;;;18.40;100.00
9889;BME280;4983;42.112;24.738;2022-09-09T02:31:08;99873.88;;;18.65;100.00
9889;BME280;4983;42.112;24.738;2022-09-09T02:33:41;99884.38;;;18.33;100.00
9889;BME280;4983;42.112;24.738;2022-09-09T02:36:10;99888.06;;;18.17;100.00
9889;BME280;4983;42.112;24.738;2022-09-09T02:38:44;99882.13;;;18.14;100.00
9889;BME280;4983;42.112;24.738;2022-09-09T02:41:17;99892.69;;;18.02;100.00
9889;BME280;4983;42.112;24.738;2022-09-09T02:43:47;99885.78;;;17.69;100.00
9889;BME280;4983;42.112;24.738;2022-09-09T02:46:25;99891.59;;;17.21;100.00
9889;BME280;4983;42.112;24.738;2022-09-09T02:48:59;99893.41;;;17.82;100.00
9889;BME280;4983;42.112;24.738;2022-09-09T02:51:35;99892.22;;;17.76;100.00
9889;BME280;4983;42.112;24.738;2022-09-09T02:54:10;99885.88;;;17.61;100.00
9889;BME280;4983;42.112;24.738;2022-09-09T02:56:45;99900.34;;;17.70;100.00
9889;BME280;4983;42.112;24.738;2022-09-09T02:59:16;99893.94;;;17.32;100.00
9889;BME280;4983;42.112;24.738;2022-09-09T03:01:43;99896.69;;;17.55;100.00
9889;BME280;4983;42.112;24.738;2022-09-09T03:04:11;99903.69;;;17.57;100.00
9889;BME280;4983;42.112;24.738;2022-09-09T03:06:38;99896.44;;;17.64;100.00
9889;BME280;4983;42.112;24.738;2022-09-09T03:09:06;99897.63;;;17.47;100.00
9889;BME280;4983;42.112;24.738;2022-09-09T03:11:36;99896.69;;;17.55;100.00
9889;BME280;4983;42.112;24.738;2022-09-09T03:14:04;99888.88;;;17.52;100.00
9889;BME280;4983;42.112;24.738;2022-09-09T03:16:33;99897.78;;;17.68;100.00
9889;BME280;4983;42.112;24.738;2022-09-09T03:19:01;99896.63;;;17.85;100.00
9889;BME280;4983;42.112;24.738;2022-09-09T03:21:28;99909.47;;;17.62;100.00
9889;BME280;4983;42.112;24.738;2022-09-09T03:23:57;99904.09;;;17.91;100.00
9889;BME280;4983;42.112;24.738;2022-09-09T03:26:25;99912.00;;;17.86;100.00
9889;BME280;4983;42.112;24.738;2022-09-09T03:28:52;99917.25;;;17.73;100.00
9889;BME280;4983;42.112;24.738;2022-09-09T03:31:20;99918.28;;;17.72;100.00
9889;BME280;4983;42.112;24.738;2022-09-09T03:33:48;99924.88;;;17.86;100.00
9889;BME280;4983;42.112;24.738;2022-09-09T03:36:17;99929.34;;;17.79;100.00
9889;BME280;4983;42.112;24.738;2022-09-09T03:38:44;99929.47;;;17.85;100.00
9889;BME280;4983;42.112;24.738;2022-09-09T03:41:11;99923.47;;;17.67;100.00
9889;BME280;4983;42.112;24.738;2022-09-09T03:43:39;99923.38;;;17.75;100.00
9889;BME280;4983;42.112;24.738;2022-09-09T03:46:08;99928.63;;;17.62;100.00
9889;BME280;4983;42.112;24.738;2022-09-09T03:48:36;99920.53;;;17.46;100.00
9889;BME280;4983;42.112;24.738;2022-09-09T03:51:05;99923.34;;;17.38;100.00
9889;BME280;4983;42.112;24.738;2022-09-09T03:53:32;99919.00;;;17.13;100.00
9889;BME280;4983;42.112;24.738;2022-09-09T03:56:00;99922.66;;;17.28;100.00
9889;BME280;4983;42.112;24.738;2022-09-09T03:58:28;99920.41;;;17.32;100.00
9889;BME280;4983;42.112;24.738;2022-09-09T04:00:57;99925.81;;;17.48;100.00
9889;BME280;4983;42.112;24.738;2022-09-09T04:03:25;99940.31;;;17.56;100.00
9889;BME280;4983;42.112;24.738;2022-09-09T04:05:52;99919.53;;;17.47;100.00
9889;BME280;4983;42.112;24.738;2022-09-09T04:08:22;99919.44;;;17.25;100.00
9889;BME280;4983;42.112;24.738;2022-09-09T04:10:51;99927.03;;;17.15;100.00
9889;BME280;4983;42.112;24.738;2022-09-09T04:13:19;99915.44;;;17.35;100.00
9889;BME280;4983;42.112;24.738;2022-09-09T04:15:50;99911.78;;;17.20;100.00
9889;BME280;4983;42.112;24.738;2022-09-09T04:18:18;99914.13;;;17.31;100.00
9889;BME280;4983;42.112;24.738;2022-09-09T04:20:47;99930.94;;;17.51;100.00
9889;BME280;4983;42.112;24.738;2022-09-09T04:23:14;99917.69;;;17.40;100.00
9889;BME280;4983;42.112;24.738;2022-09-09T04:25:47;99911.78;;;17.51;100.00
9889;BME280;4983;42.112;24.738;2022-09-09T04:28:15;99902.84;;;17.57;100.00
9889;BME280;4983;42.112;24.738;2022-09-09T04:30:44;99910.94;;;17.50;100.00
9889;BME280;4983;42.112;24.738;2022-09-09T04:33:12;99919.53;;;17.47;100.00
9889;BME280;4983;42.112;24.738;2022-09-09T04:35:44;99920.81;;;17.59;100.00
9889;BME280;4983;42.112;24.738;2022-09-09T04:38:12;99921.19;;;17.18;100.00
9889;BME280;4983;42.112;24.738;2022-09-09T04:40:42;99915.91;;;17.47;100.00
9889;BME280;4983;42.112;24.738;2022-09-09T04:43:11;99922.34;;;17.23;100.00
9889;BME280;4983;42.112;24.738;2022-09-09T04:45:40;99917.00;;;17.38;100.00
9889;BME280;4983;42.112;24.738;2022-09-09T04:48:08;99923.34;;;17.38;100.00
9889;BME280;4983;42.112;24.738;2022-09-09T04:50:36;99934.72;;;17.19;100.00
9889;BME280;4983;42.112;24.738;2022-09-09T04:53:04;99934.31;;;17.30;100.00
9889;BME280;4983;42.112;24.738;2022-09-09T04:55:32;99935.06;;;17.47;100.00
9889;BME280;4983;42.112;24.738;2022-09-09T04:58:03;99934.22;;;17.46;100.00
9889;BME280;4983;42.112;24.738;2022-09-09T05:00:32;99950.69;;;17.61;100.00
9889;BME280;4983;42.112;24.738;2022-09-09T05:03:02;99952.84;;;17.73;100.00
9889;BME280;4983;42.112;24.738;2022-09-09T05:05:30;99950.66;;;17.69;100.00
9889;BME280;4983;42.112;24.738;2022-09-09T05:08:02;99943.09;;;17.71;100.00
9889;BME280;4983;42.112;24.738;2022-09-09T05:10:30;99946.16;;;17.76;100.00
9889;BME280;4983;42.112;24.738;2022-09-09T05:12:58;99947.56;;;18.09;100.00
9889;BME280;4983;42.112;24.738;2022-09-09T05:15:26;99941.25;;;18.08;100.00
9889;BME280;4983;42.112;24.738;2022-09-09T05:17:58;99943.09;;;17.93;100.00
9889;BME280;4983;42.112;24.738;2022-09-09T05:20:26;99931.25;;;18.15;100.00
9889;BME280;4983;42.112;24.738;2022-09-09T05:22:53;99938.09;;;17.97;100.00
9889;BME280;4983;42.112;24.738;2022-09-09T05:25:20;99941.13;;;18.02;100.00
9889;BME280;4983;42.112;24.738;2022-09-09T05:27:48;99932.31;;;18.29;100.00
9889;BME280;4983;42.112;24.738;2022-09-09T05:30:16;99934.06;;;18.44;100.00
9889;BME280;4983;42.112;24.738;2022-09-09T05:32:45;99930.38;;;18.37;100.00
9889;BME280;4983;42.112;24.738;2022-09-09T05:35:15;99929.53;;;18.51;100.00
9889;BME280;4983;42.112;24.738;2022-09-09T05:37:43;99928.78;;;18.72;100.00
9889;BME280;4983;42.112;24.738;2022-09-09T05:40:11;99933.31;;;18.79;100.00
9889;BME280;4983;42.112;24.738;2022-09-09T05:42:39;99934.75;;;18.61;100.00
9889;BME280;4983;42.112;24.738;2022-09-09T05:45:07;99942.28;;;18.44;100.00
9889;BME280;4983;42.112;24.738;2022-09-09T05:47:36;99938.91;;;18.71;100.00
9889;BME280;4983;42.112;24.738;2022-09-09T05:50:04;99944.75;;;18.68;100.00
9889;BME280;4983;42.112;24.738;2022-09-09T05:52:34;99935.13;;;18.72;100.00
9889;BME280;4983;42.112;24.738;2022-09-09T05:55:01;99938.91;;;19.00;100.00
9889;BME280;4983;42.112;24.738;2022-09-09T05:57:30;99929.00;;;19.20;100.00
9889;BME280;4983;42.112;24.738;2022-09-09T05:59:57;99927.69;;;19.16;100.00
9889;BME280;4983;42.112;24.738;2022-09-09T06:02:25;99934.81;;;19.25;100.00
9889;BME280;4983;42.112;24.738;2022-09-09T06:04:52;99932.66;;;19.21;100.00
9889;BME280;4983;42.112;24.738;2022-09-09T06:07:23;99924.66;;;19.26;100.00
9889;BME280;4983;42.112;24.738;2022-09-09T06:09:52;99909.22;;;19.39;100.00
9889;BME280;4983;42.112;24.738;2022-09-09T06:12:19;99903.94;;;19.59;100.00
9889;BME280;4983;42.112;24.738;2022-09-09T06:14:47;99916.28;;;19.69;100.00
9889;BME280;4983;42.112;24.738;2022-09-09T06:17:16;99918.59;;;19.87;100.00
9889;BME280;4983;42.112;24.738;2022-09-09T06:19:43;99919.41;;;19.87;100.00
9889;BME280;4983;42.112;24.738;2022-09-09T06:22:11;99916.06;;;20.06;99.91
9889;BME280;4983;42.112;24.738;2022-09-09T06:24:38;99916.00;;;20.27;98.09
9889;BME280;4983;42.112;24.738;2022-09-09T06:27:07;99914.13;;;20.28;98.10
9889;BME280;4983;42.112;24.738;2022-09-09T06:29:34;99911.72;;;20.18;98.41
9889;BME280;4983;42.112;24.738;2022-09-09T06:32:02;99908.03;;;20.11;97.96
9889;BME280;4983;42.112;24.738;2022-09-09T06:34:31;99920.00;;;20.25;98.47
9889;BME280;4983;42.112;24.738;2022-09-09T06:36:58;99932.56;;;20.34;96.89
9889;BME280;4983;42.112;24.738;2022-09-09T06:39:25;99926.50;;;20.45;99.51
9889;BME280;4983;42.112;24.738;2022-09-09T06:41:52;99917.59;;;20.77;98.19
9889;BME280;4983;42.112;24.738;2022-09-09T06:44:21;99927.16;;;20.81;97.33
9889;BME280;4983;42.112;24.738;2022-09-09T06:46:48;99931.31;;;21.04;97.08
9889;BME280;4983;42.112;24.738;2022-09-09T06:49:16;99926.31;;;21.20;96.46
9889;BME280;4983;42.112;24.738;2022-09-09T06:51:43;99929.88;;;21.14;93.99
9889;BME280;4983;42.112;24.738;2022-09-09T06:54:11;99936.81;;;20.98;96.28
9889;BME280;4983;42.112;24.738;2022-09-09T06:56:39;99933.59;;;21.34;94.29
9889;BME280;4983;42.112;24.738;2022-09-09T06:59:09;99933.38;;;21.42;93.78
9889;BME280;4983;42.112;24.738;2022-09-09T07:01:40;99935.78;;;21.58;93.01
9889;BME280;4983;42.112;24.738;2022-09-09T07:04:08;99932.16;;;21.58;91.54
9889;BME280;4983;42.112;24.738;2022-09-09T07:06:37;99925.00;;;21.70;91.27
9889;BME280;4983;42.112;24.738;2022-09-09T07:09:07;99925.00;;;21.70;90.04
9889;BME280;4983;42.112;24.738;2022-09-09T07:11:38;99933.56;;;22.01;89.29
9889;BME280;4983;42.112;24.738;2022-09-09T07:14:05;99924.00;;;21.97;89.81
9889;BME280;4983;42.112;24.738;2022-09-09T07:16:33;99930.38;;;22.17;88.48
9889;BME280;4983;42.112;24.738;2022-09-09T07:19:04;99928.28;;;22.06;85.83
9889;BME280;4983;42.112;24.738;2022-09-09T07:21:32;99927.44;;;22.12;86.87
9889;BME280;4983;42.112;24.738;2022-09-09T07:24:00;99930.59;;;22.28;88.28
9889;BME280;4983;42.112;24.738;2022-09-09T07:26:29;99929.34;;;22.44;84.63
9889;BME280;4983;42.112;24.738;2022-09-09T07:28:57;99929.31;;;22.57;85.72
9889;BME280;4983;42.112;24.738;2022-09-09T07:31:25;99928.03;;;22.59;85.75
9889;BME280;4983;42.112;24.738;2022-09-09T07:33:53;99940.50;;;22.88;85.37
9889;BME280;4983;42.112;24.738;2022-09-09T07:36:23;99928.38;;;22.95;82.71
9889;BME280;4983;42.112;24.738;2022-09-09T07:38:53;99926.28;;;22.91;84.54
9889;BME280;4983;42.112;24.738;2022-09-09T07:41:23;99924.81;;;22.82;85.41
9889;BME280;4983;42.112;24.738;2022-09-09T07:43:51;99937.53;;;22.89;84.57
9889;BME280;4983;42.112;24.738;2022-09-09T07:46:21;99923.66;;;23.15;84.77
9889;BME280;4983;42.112;24.738;2022-09-09T07:48:50;99914.47;;;23.34;83.21
9889;BME280;4983;42.112;24.738;2022-09-09T07:51:20;99917.94;;;23.61;82.28
9889;BME280;4983;42.112;24.738;2022-09-09T07:53:52;99922.25;;;23.88;82.05
9889;BME280;4983;42.112;24.738;2022-09-09T07:56:20;99910.97;;;23.89;80.87
9889;BME280;4983;42.112;24.738;2022-09-09T07:58:50;99908.41;;;23.88;78.64
9889;BME280;4983;42.112;24.738;2022-09-09T08:01:20;99915.38;;;23.97;80.55
9889;BME280;4983;42.112;24.738;2022-09-09T08:03:53;99914.94;;;24.00;78.97
9889;BME280;4983;42.112;24.738;2022-09-09T08:06:21;99905.28;;;24.09;79.30
9889;BME280;4983;42.112;24.738;2022-09-09T08:08:52;99903.25;;;24.47;78.03
9889;BME280;4983;42.112;24.738;2022-09-09T08:11:21;99898.25;;;24.62;79.06
9889;BME280;4983;42.112;24.738;2022-09-09T08:13:51;99895.97;;;24.52;77.67
9889;BME280;4983;42.112;24.738;2022-09-09T08:16:20;99895.84;;;24.41;76.13
9889;BME280;4983;42.112;24.738;2022-09-09T08:18:49;99900.34;;;24.42;77.86
9889;BME280;4983;42.112;24.738;2022-09-09T08:21:18;99895.72;;;24.78;75.22
9889;BME280;4983;42.112;24.738;2022-09-09T08:23:47;99894.63;;;24.79;77.77
9889;BME280;4983;42.112;24.738;2022-09-09T08:26:17;99888.41;;;24.84;77.13
9889;BME280;4983;42.112;24.738;2022-09-09T08:28:49;99891.03;;;24.79;74.11
9889;BME280;4983;42.112;24.738;2022-09-09T08:31:18;99884.50;;;25.09;75.24
9889;BME280;4983;42.112;24.738;2022-09-09T08:33:46;99881.97;;;25.26;73.40
9889;BME280;4983;42.112;24.738;2022-09-09T08:36:15;99866.56;;;25.30;73.87
9889;BME280;4983;42.112;24.738;2022-09-09T08:38:43;99880.91;;;25.56;74.95
9889;BME280;4983;42.112;24.738;2022-09-09T08:41:32;99875.03;;;25.64;71.60
9889;BME280;4983;42.112;24.738;2022-09-09T08:44:07;99874.00;;;26.18;72.35
9889;BME280;4983;42.112;24.738;2022-09-09T08:46:42;99872.91;;;26.19;70.92
9889;BME280;4983;42.112;24.738;2022-09-09T08:49:21;99875.72;;;26.65;69.64
9889;BME280;4983;42.112;24.738;2022-09-09T08:51:54;99867.13;;;26.78;69.30
9889;BME280;4983;42.112;24.738;2022-09-09T08:54:23;99869.19;;;26.82;69.10
9889;BME280;4983;42.112;24.738;2022-09-09T08:56:54;99866.03;;;26.67;66.91
9889;BME280;4983;42.112;24.738;2022-09-09T08:59:23;99865.19;;;26.78;68.75
9889;BME280;4983;42.112;24.738;2022-09-09T09:01:57;99863.69;;;26.99;67.94
9889;BME280;4983;42.112;24.738;2022-09-09T09:04:45;99862.84;;;27.21;67.78
9889;BME280;4983;42.112;24.738;2022-09-09T09:07:23;99862.69;;;27.28;66.13
9889;BME280;4983;42.112;24.738;2022-09-09T09:10:02;99861.69;;;27.34;65.54
9889;BME280;4983;42.112;24.738;2022-09-09T09:12:38;99853.97;;;27.36;65.80
9889;BME280;4983;42.112;24.738;2022-09-09T09:15:11;99853.22;;;27.40;65.51
9889;BME280;4983;42.112;24.738;2022-09-09T09:17:43;99850.03;;;27.48;64.35
9889;BME280;4983;42.112;24.738;2022-09-09T09:20:12;99844.66;;;27.30;65.47
9889;BME280;4983;42.112;24.738;2022-09-09T09:22:47;99846.00;;;27.56;65.33
9889;BME280;4983;42.112;24.738;2022-09-09T09:25:17;99838.19;;;27.25;63.71
9889;BME280;4983;42.112;24.738;2022-09-09T09:27:54;99832.66;;;27.41;65.86
9889;BME280;4983;42.112;24.738;2022-09-09T09:30:29;99826.50;;;27.39;65.50
9889;BME280;4983;42.112;24.738;2022-09-09T09:33:03;99824.09;;;27.59;64.14
9889;BME280;4983;42.112;24.738;2022-09-09T09:35:32;99821.56;;;27.86;64.40
9889;BME280;4983;42.112;24.738;2022-09-09T09:38:01;99817.59;;;27.82;63.11
9889;BME280;4983;42.112;24.738;2022-09-09T09:40:29;99812.53;;;27.79;64.59
9889;BME280;4983;42.112;24.738;2022-09-09T09:42:59;99812.78;;;27.94;61.99
9889;BME280;4983;42.112;24.738;2022-09-09T09:45:29;99808.75;;;27.57;65.52
9889;BME280;4983;42.112;24.738;2022-09-09T09:48:02;99807.72;;;28.07;62.18
9889;BME280;4983;42.112;24.738;2022-09-09T09:50:31;99806.78;;;28.35;63.73
9889;BME280;4983;42.112;24.738;2022-09-09T09:53:02;99813.66;;;28.44;61.28
9889;BME280;4983;42.112;24.738;2022-09-09T09:55:31;99805.03;;;27.96;64.62
9889;BME280;4983;42.112;24.738;2022-09-09T09:58:04;99788.34;;;28.12;63.71
9889;BME280;4983;42.112;24.738;2022-09-09T10:00:33;99795.16;;;27.88;61.66
9889;BME280;4983;42.112;24.738;2022-09-09T10:03:21;99798.03;;;27.93;65.55
9889;BME280;4983;42.112;24.738;2022-09-09T10:05:49;99791.94;;;28.29;64.00
9889;BME280;4983;42.112;24.738;2022-09-09T10:08:17;99779.66;;;28.63;63.96
9889;BME280;4983;42.112;24.738;2022-09-09T10:11:02;99771.81;;;28.98;61.66
9889;BME280;4983;42.112;24.738;2022-09-09T10:13:41;99760.22;;;28.90;59.94
9889;BME280;4983;42.112;24.738;2022-09-09T10:16:23;99773.00;;;29.07;61.29
9889;BME280;4983;42.112;24.738;2022-09-09T10:18:59;99764.50;;;29.19;60.19
9889;BME280;4983;42.112;24.738;2022-09-09T10:21:37;99761.06;;;29.60;59.52
9889;BME280;4983;42.112;24.738;2022-09-09T10:24:26;99758.66;;;29.47;58.23
9889;BME280;4983;42.112;24.738;2022-09-09T10:27:02;99762.56;;;29.72;58.56
9889;BME280;4983;42.112;24.738;2022-09-09T10:29:58;99763.69;;;29.71;63.07
9889;BME280;4983;42.112;24.738;2022-09-09T10:32:40;99761.44;;;29.47;58.42
9889;BME280;4983;42.112;24.738;2022-09-09T10:35:24;99758.34;;;29.43;61.67
9889;BME280;4983;42.112;24.738;2022-09-09T10:38:10;99773.72;;;29.72;59.47
9889;BME280;4983;42.112;24.738;2022-09-09T10:40:43;99762.41;;;29.84;58.10
9889;BME280;4983;42.112;24.738;2022-09-09T10:43:31;99760.44;;;30.16;57.33
9889;BME280;4983;42.112;24.738;2022-09-09T10:46:12;99747.13;;;29.96;59.66
9889;BME280;4983;42.112;24.738;2022-09-09T10:48:57;99744.88;;;30.25;58.80
9889;BME280;4983;42.112;24.738;2022-09-09T10:51:35;99742.75;;;30.42;57.09
9889;BME280;4983;42.112;24.738;2022-09-09T10:54:28;99748.91;;;30.44;58.00
9889;BME280;4983;42.112;24.738;2022-09-09T10:57:00;99741.66;;;30.53;57.54
9889;BME280;4983;42.112;24.738;2022-09-09T10:59:33;99743.94;;;30.56;56.84
9889;BME280;4983;42.112;24.738;2022-09-09T11:02:11;99744.69;;;30.41;57.09
9889;BME280;4983;42.112;24.738;2022-09-09T11:04:43;99737.63;;;30.29;54.89
9889;BME280;4983;42.112;24.738;2022-09-09T11:07:17;99737.63;;;30.29;59.96
9889;BME280;4983;42.112;24.738;2022-09-09T11:09:52;99725.03;;;30.21;57.84
9889;BME280;4983;42.112;24.738;2022-09-09T11:12:23;99725.75;;;30.53;56.56
9889;BME280;4983;42.112;24.738;2022-09-09T11:14:55;99722.38;;;30.46;55.64
9889;BME280;4983;42.112;24.738;2022-09-09T11:17:29;99723.41;;;30.77;55.89
9889;BME280;4983;42.112;24.738;2022-09-09T11:19:59;99719.78;;;30.81;54.60
9889;BME280;4983;42.112;24.738;2022-09-09T11:22:29;99715.59;;;30.94;54.88
9889;BME280;4983;42.112;24.738;2022-09-09T11:25:00;99711.69;;;30.85;55.92
9889;BME280;4983;42.112;24.738;2022-09-09T11:27:32;99710.38;;;31.17;54.89
9889;BME280;4983;42.112;24.738;2022-09-09T11:30:17;99705.13;;;31.51;55.43
9889;BME280;4983;42.112;24.738;2022-09-09T11:35:52;99700.63;;;31.35;52.65
9889;BME280;4983;42.112;24.738;2022-09-09T11:38:26;99700.91;;;31.43;52.81
9889;BME280;4983;42.112;24.738;2022-09-09T11:40:56;99695.06;;;31.45;52.16
9889;BME280;4983;42.112;24.738;2022-09-09T11:43:28;99697.81;;;31.20;53.46
9889;BME280;4983;42.112;24.738;2022-09-09T11:45:59;99695.31;;;31.28;52.93
9889;BME280;4983;42.112;24.738;2022-09-09T11:48:40;99693.31;;;31.14;54.77
9889;BME280;4983;42.112;24.738;2022-09-09T11:51:11;99690.78;;;31.12;56.25
9889;BME280;4983;42.112;24.738;2022-09-09T11:53:50;99689.94;;;31.07;56.25
9889;BME280;4983;42.112;24.738;2022-09-09T11:56:26;99683.78;;;31.15;58.01
9889;BME280;4983;42.112;24.738;2022-09-09T11:58:57;99685.25;;;31.37;54.47
9889;BME280;4983;42.112;24.738;2022-09-09T12:01:44;99679.56;;;31.07;54.73
9889;BME280;4983;42.112;24.738;2022-09-09T12:04:29;99672.28;;;31.01;52.52
9889;BME280;4983;42.112;24.738;2022-09-09T12:07:00;99674.19;;;30.81;55.49
9889;BME280;4983;42.112;24.738;2022-09-09T12:09:46;99671.44;;;30.96;57.06
9889;BME280;4983;42.112;24.738;2022-09-09T12:12:39;99665.03;;;31.10;54.72
9889;BME280;4983;42.112;24.738;2022-09-09T12:15:27;99661.19;;;31.41;52.74
9889;BME280;4983;42.112;24.738;2022-09-09T12:18:04;99662.88;;;31.57;53.79
9889;BME280;4983;42.112;24.738;2022-09-09T12:20:36;99658.09;;;31.88;54.64
9889;BME280;4983;42.112;24.738;2022-09-09T12:23:30;99648.88;;;31.32;53.00
9889;BME280;4983;42.112;24.738;2022-09-09T12:26:16;99651.94;;;31.41;54.21
9889;BME280;4983;42.112;24.738;2022-09-09T12:28:58;99644.09;;;31.28;52.17
9889;BME280;4983;42.112;24.738;2022-09-09T12:31:34;99641.91;;;31.30;52.86
9889;BME280;4983;42.112;24.738;2022-09-09T12:34:25;99629.00;;;31.59;51.89
9889;BME280;4983;42.112;24.738;2022-09-09T12:37:11;99643.00;;;31.54;51.85
9889;BME280;4983;42.112;24.738;2022-09-09T12:39:47;99627.31;;;31.28;56.79
9889;BME280;4983;42.112;24.738;2022-09-09T12:42:19;99635.69;;;31.13;58.96
9889;BME280;4983;42.112;24.738;2022-09-09T12:44:55;99630.00;;;30.73;55.24
9889;BME280;4983;42.112;24.738;2022-09-09T12:47:32;99623.22;;;30.59;56.79
9889;BME280;4983;42.112;24.738;2022-09-09T12:50:10;99624.78;;;30.30;58.32
9889;BME280;4983;42.112;24.738;2022-09-09T12:52:45;99622.00;;;30.35;57.16
9889;BME280;4983;42.112;24.738;2022-09-09T12:55:18;99620.78;;;30.77;54.79
9889;BME280;4983;42.112;24.738;2022-09-09T12:57:52;99615.47;;;30.76;55.78
9889;BME280;4983;42.112;24.738;2022-09-09T13:00:23;99619.41;;;30.80;55.63
9889;BME280;4983;42.112;24.738;2022-09-09T13:02:55;99614.94;;;30.84;57.54
9889;BME280;4983;42.112;24.738;2022-09-09T13:05:38;99615.50;;;30.91;54.84
9889;BME280;4983;42.112;24.738;2022-09-09T13:08:09;99598.97;;;30.69;57.71
9889;BME280;4983;42.112;24.738;2022-09-09T13:10:43;99605.75;;;30.98;54.96
9889;BME280;4983;42.112;24.738;2022-09-09T13:13:17;99607.13;;;30.91;53.50
9889;BME280;4983;42.112;24.738;2022-09-09T13:15:49;99595.94;;;30.96;57.49
9889;BME280;4983;42.112;24.738;2022-09-09T13:18:21;99602.38;;;31.01;54.67
9889;BME280;4983;42.112;24.738;2022-09-09T13:20:50;99583.97;;;31.40;51.84
9889;BME280;4983;42.112;24.738;2022-09-09T13:23:20;99582.25;;;31.54;54.20
9889;BME280;4983;42.112;24.738;2022-09-09T13:25:55;99586.47;;;31.47;54.52
9889;BME280;4983;42.112;24.738;2022-09-09T13:28:25;99585.31;;;31.58;54.71
9889;BME280;4983;42.112;24.738;2022-09-09T13:30:56;99588.97;;;31.03;54.95
9889;BME280;4983;42.112;24.738;2022-09-09T13:33:31;99587.00;;;30.84;55.98
9889;BME280;4983;42.112;24.738;2022-09-09T13:36:01;99576.91;;;30.93;55.74